Terminal Aerodrome Forecast
Issued by NWS

Home | Current Version | Previous Version | Text Only | Print | Product List | Glossary On
Versions: 1 2 3 4 5 6 7 8 9 10 11 12
000
FTUS45 KVEF 251120
TAFDAG
TAF
KDAG 251120Z 2512/2612 27012KT P6SM FEW250
     FM252300 26015KT P6SM VCSH SCT050 BKN070
     FM260300 24022G29KT P6SM FEW070 BKN250=

USA.gov is the U.S. government's official web portal to all federal, state and local government web resources and services.